Latest Weather Observations for Scottsdale

IDT60801

Issued at 9:35 pm EDT Tuesday 21 October 2014 (issued every 30 minutes, with the page automatically refreshed every 10 minutes)

About weather observations | Map of weather stations | Latest weather observations for TAS | Other Formats
Station Details ID: 091219 Name: SCOTTSDALE (WEST MINSTONE ROAD) Lat: -41.17 Lon: 147.49 Height: 197.5 m
Data from the previous 72 hours. | See also: Recent months at Scottsdale
Date/Time
EDT
Temp
°C
App
Temp
°C
Dew
Point
Rel
Hum
%
Delta-T
°C
Wind Press
QNH
hPa
Press
MSL
hPa
Rain
since 9 am
mm
Dir
 
Spd
km/h
Gust
km/h
Spd
kts
Gust
kts
21/09:30pm 9.6 6.1 5.4 75 1.9 E 13 15 7 8 1029.6 - 0.0
21/09:00pm 9.6 5.7 5.2 74 2.0 ENE 15 20 8 11 1029.6 1029.7 0.0
21/08:30pm 10.3 5.4 5.0 69 2.4 ENE 20 26 11 14 1029.1 - 0.0
21/08:00pm 10.5 6.7 5.7 72 2.2 ENE 15 20 8 11 1029.2 - 0.0
21/07:30pm 11.5 7.0 5.9 68 2.6 ENE 19 26 10 14 1029.3 - 0.0
21/07:00pm 12.7 8.0 5.9 63 3.2 ENE 20 30 11 16 1029.0 - 0.0
21/06:30pm 13.4 8.4 6.5 63 3.3 NE 22 32 12 17 1028.9 - 0.0
21/06:00pm 14.8 10.2 6.6 58 4.0 NE 20 24 11 13 1029.1 1029.1 0.0
21/05:30pm 15.5 11.1 6.5 55 4.4 NE 19 26 10 14 1029.0 - 0.0
21/05:00pm 15.7 11.0 6.2 53 4.6 NE 20 28 11 15 1029.2 - 0.0
21/04:30pm 16.1 12.0 6.0 51 4.9 NE 17 26 9 14 1029.3 - 0.0
21/04:00pm 16.1 11.4 6.0 51 4.9 NNE 20 28 11 15 1029.6 - 0.0
21/03:30pm 15.9 11.2 5.2 49 5.1 NE 19 30 10 16 1030.2 - 0.0
21/03:00pm 16.6 13.3 6.2 50 5.1 NE 13 28 7 15 1030.5 1030.7 0.0
21/02:30pm 16.7 13.1 6.8 52 4.9 NE 15 20 8 11 1030.9 - 0.0
21/02:00pm 15.8 13.1 5.6 50 4.9 N 9 20 5 11 1031.4 - 0.0
21/01:30pm 16.1 13.2 6.5 53 4.7 ENE 11 17 6 9 1031.9 - 0.0
21/01:00pm 15.4 12.0 6.1 54 4.5 E 13 22 7 12 1032.3 - 0.0
21/12:30pm 13.8 9.4 5.0 55 4.1 E 17 26 9 14 1032.5 - 0.0
21/12:00pm 13.8 9.8 5.0 55 4.1 E 15 20 8 11 1032.9 1033.1 0.0
21/11:30am 13.0 9.0 4.8 57 3.8 E 15 20 8 11 1033.3 - 0.0
21/11:00am 12.5 8.5 4.9 60 3.5 ENE 15 22 8 12 1033.6 - 0.0
21/10:30am 12.3 6.9 4.4 58 3.6 ENE 22 28 12 15 1034.0 - 0.0
21/10:00am 11.6 7.5 4.3 61 3.3 E 15 22 8 12 1034.2 - 0.0
21/09:30am 11.5 7.8 4.7 63 3.1 E 13 20 7 11 1034.1 - 0.0
21/09:00am 10.7 6.9 3.9 63 3.0 E 13 17 7 9 1034.1 1034.2 0.0
21/08:30am 10.2 6.8 3.8 64 2.8 ESE 11 17 6 9 1033.8 - 0.0
21/08:00am 10.0 6.6 3.9 66 2.7 ESE 11 15 6 8 1033.6 - 0.0
21/07:30am 9.4 6.4 3.9 68 2.4 SE 9 13 5 7 1033.5 - 0.0
21/07:00am 8.7 5.7 4.1 73 2.0 SSE 9 13 5 7 1033.1 - 0.0
21/06:30am 8.1 4.8 4.5 78 1.6 SSE 11 13 6 7 1032.9 - 0.0
21/06:00am 8.1 5.1 3.9 75 1.8 SE 9 13 5 7 1032.6 1032.8 0.0
21/05:30am 6.8 3.2 3.0 77 1.6 E 11 15 6 8 1032.6 - 0.0
21/05:00am 7.8 3.8 3.1 72 2.0 E 13 17 7 9 1032.5 - 0.0
21/04:30am 8.6 5.1 3.5 70 2.2 E 11 15 6 8 1032.5 - 0.0
21/04:00am 8.6 5.5 3.8 72 2.1 E 9 13 5 7 1032.8 - 0.0
21/03:30am 8.6 5.2 4.0 73 2.0 ESE 11 13 6 7 1033.0 - 0.0
21/03:00am 8.1 5.7 5.2 82 1.3 SE 7 9 4 5 1033.2 1033.4 0.0
21/02:30am 8.1 5.6 4.9 80 1.4 ESE 7 11 4 6 1033.3 - 0.0
21/02:00am 8.3 5.4 4.4 76 1.7 ESE 9 11 5 6 1033.5 - 0.0
21/01:30am 8.4 5.3 3.8 73 2.0 ESE 9 13 5 7 1033.7 - 0.0
21/01:00am 8.2 5.1 3.8 74 1.9 E 9 13 5 7 1034.1 - 0.0
21/12:30am 7.6 4.6 3.9 77 1.6 ESE 9 13 5 7 1034.1 - 0.0
21/12:00am 8.7 4.8 3.6 70 2.2 ESE 13 17 7 9 1034.4 1034.5 0.0
 
Date/Time
EDT
Temp
°C
App
Temp
°C
Dew
Point
Rel
Hum
%
Delta-T
°C
Wind Press
QNH
hPa
Press
MSL
hPa
Rain
since 9 am
mm
Dir
 
Spd
km/h
Gust
km/h
Spd
kts
Gust
kts
20/11:30pm 9.0 4.7 3.2 67 2.5 E 15 22 8 12 1034.7 - 0.0
20/11:00pm 9.0 5.1 3.4 68 2.4 E 13 19 7 10 1034.8 - 0.0
20/10:30pm 9.0 5.2 4.0 71 2.2 E 13 17 7 9 1034.7 - 0.0
20/10:00pm 9.2 5.4 3.9 69 2.3 ENE 13 17 7 9 1034.9 - 0.0
20/09:30pm 9.1 4.9 3.8 69 2.3 NE 15 19 8 10 1034.7 - 0.0
20/09:00pm 9.3 3.7 3.3 66 2.6 NE 22 28 12 15 1034.4 1034.5 0.0
20/08:30pm 9.6 4.3 3.1 64 2.8 ENE 20 26 11 14 1034.1 - 0.0
20/08:00pm 9.6 7.0 3.1 64 2.8 WNW 6 7 3 4 1033.6 - 0.0
20/07:30pm 9.6 6.8 3.1 64 2.8 NW 7 11 4 6 1033.3 - 0.0
20/07:00pm 10.3 6.6 2.3 57 3.4 NW 11 17 6 9 1033.1 - 0.0
20/06:30pm 11.0 6.9 2.4 55 3.7 NNW 13 20 7 11 1032.8 - 0.0
20/06:00pm 11.1 6.4 3.1 58 3.5 N 17 22 9 12 1032.7 1032.9 0.0
20/05:30pm 12.1 7.5 3.9 57 3.7 N 17 24 9 13 1032.5 - 0.0
20/05:00pm 12.8 7.8 3.7 54 4.1 N 19 24 10 13 1032.5 - 0.0
20/04:30pm 12.8 7.8 3.4 53 4.2 N 19 26 10 14 1032.3 - 0.0
20/04:00pm 13.3 8.1 2.7 48 4.7 N 19 26 10 14 1032.3 - 0.0
20/03:30pm 13.0 7.7 1.6 46 4.9 N 19 24 10 13 1032.3 - 0.0
20/03:00pm 13.5 8.0 1.7 44 5.1 N 20 26 11 14 1032.5 1032.7 0.0
20/02:30pm 14.1 9.2 2.3 45 5.3 NNW 17 26 9 14 1032.5 - 0.0
20/02:00pm 13.9 9.8 0.1 39 5.8 N 11 20 6 11 1032.6 - 0.0
20/01:30pm 13.9 10.2 -0.3 37 6.0 N 9 15 5 8 1032.8 - 0.0
20/01:00pm 13.5 9.5 -2.1 34 6.3 NW 9 15 5 8 1033.0 - 0.0
20/12:30pm 13.6 10.2 1.9 45 5.1 N 9 17 5 9 1033.0 - 0.0
20/12:00pm 11.9 7.6 -1.4 39 5.3 NW 11 17 6 9 1033.2 1033.4 0.0
20/11:30am 11.9 8.8 -0.1 43 5.0 N 6 11 3 6 1033.3 - 0.0
20/11:00am 11.6 8.2 -0.5 43 4.9 SE 7 11 4 6 1033.3 - 0.0
20/10:30am 10.2 6.7 -3.1 39 5.0 NNW 6 9 3 5 1033.1 - 0.0
20/10:00am 9.4 5.6 -3.7 39 4.8 SW 7 11 4 6 1033.0 - 0.0
20/09:30am 8.7 5.1 -3.7 41 4.5 WSW 6 9 3 5 1032.7 - 0.0
20/09:00am 8.1 4.3 -3.5 44 4.2 W 7 9 4 5 1032.5 1032.6 0.2
20/08:30am 7.5 3.9 -1.8 51 3.5 SSE 7 9 4 5 1032.2 - 0.2
20/08:00am 7.4 3.6 -1.0 55 3.2 SE 9 11 5 6 1031.8 - 0.2
20/07:30am 5.9 2.1 -1.0 61 2.6 SE 9 11 5 6 1031.5 - 0.2
20/07:00am 4.2 0.1 -2.9 60 2.5 S 9 11 5 6 1031.4 - 0.2
20/06:30am 3.5 -1.0 -3.5 60 2.4 S 11 15 6 8 1030.9 - 0.2
20/06:00am 4.4 -0.2 -4.1 54 2.9 SSW 11 15 6 8 1030.2 1030.4 0.2
20/05:30am 4.5 0.9 -1.9 63 2.3 SW 7 11 4 6 1029.4 - 0.2
20/05:00am 5.1 0.8 -1.7 61 2.5 SSW 11 17 6 9 1028.9 - 0.2
20/04:30am 5.7 0.2 -1.9 58 2.8 S 17 28 9 15 1028.9 - 0.2
20/04:00am 5.9 0.4 -2.3 55 3.0 SSW 17 32 9 17 1028.8 - 0.2
20/03:30am 5.5 0.7 -2.2 57 2.8 S 13 19 7 10 1028.4 - 0.2
20/03:00am 6.2 1.8 -2.6 53 3.2 SSW 11 22 6 12 1028.1 1028.2 0.2
20/02:30am 5.7 1.8 -1.6 59 2.7 S 9 15 5 8 1027.6 - 0.2
20/02:00am 6.7 1.3 -1.6 55 3.1 SSW 17 26 9 14 1027.0 - 0.2
20/01:30am 6.5 2.0 -0.5 61 2.7 S 13 20 7 11 1026.9 - 0.2
20/01:00am 7.1 1.4 -0.7 57 3.0 S 19 26 10 14 1026.4 - 0.2
20/12:30am 7.7 1.9 -0.2 57 3.1 S 20 33 11 18 1025.9 - 0.2
20/12:00am 8.1 2.6 0.9 60 2.9 S 19 32 10 17 1025.3 1025.4 0.2
 
Date/Time
EDT
Temp
°C
App
Temp
°C
Dew
Point
Rel
Hum
%
Delta-T
°C
Wind Press
QNH
hPa
Press
MSL
hPa
Rain
since 9 am
mm
Dir
 
Spd
km/h
Gust
km/h
Spd
kts
Gust
kts
19/11:30pm 8.9 2.5 0.8 57 3.3 SSW 24 39 13 21 1024.5 - 0.2
19/11:00pm 9.0 3.5 2.1 62 2.9 SSW 20 32 11 17 1024.1 - 0.2
19/10:30pm 9.7 4.5 2.2 59 3.2 SSW 19 26 10 14 1022.7 - 0.2
19/10:00pm 9.8 5.6 3.7 66 2.7 SSW 15 20 8 11 1022.3 - 0.2
19/09:30pm 10.0 4.9 4.2 67 2.6 S 20 26 11 14 1021.5 - 0.2
19/09:00pm 10.9 6.4 6.0 72 2.3 S 19 32 10 17 1020.7 1020.8 0.2
19/08:30pm 11.3 7.1 7.4 77 1.9 SW 19 22 10 12 1019.2 - 0.2
19/08:00pm 12.1 7.8 7.2 72 2.4 S 19 26 10 14 1018.9 - 0.0
19/07:32pm 13.7 7.6 6.5 62 3.5 WSW 28 46 15 25 1018.6 - 0.0
19/07:30pm 14.4 9.1 6.6 59 3.8 WSW 24 39 13 21 1018.4 - 0.0
19/07:00pm 14.2 13.0 10.4 78 2.0 WNW 7 11 4 6 1017.5 - 0.0
19/06:30pm 14.1 12.3 10.9 81 1.7 NW 11 15 6 8 1016.7 - 0.0
19/06:00pm 14.3 12.1 10.7 79 1.9 NNW 13 20 7 11 1016.6 1016.6 0.0
19/05:30pm 14.5 12.0 10.9 79 1.9 NNW 15 20 8 11 1016.2 - 0.0
19/05:00pm 15.4 12.9 11.1 75 2.3 NW 15 20 8 11 1015.7 - 0.0
19/04:30pm 17.3 14.9 10.2 63 3.8 WNW 13 20 7 11 1015.1 - 0.0
19/04:00pm 18.1 15.4 10.5 61 4.1 WNW 15 22 8 12 1014.4 - 0.0
19/03:30pm 18.1 14.6 10.3 60 4.2 WNW 19 30 10 16 1014.9 - 0.0
19/03:00pm 19.2 16.4 11.2 60 4.4 WNW 17 26 9 14 1015.0 1015.1 0.0
19/02:30pm 18.9 15.3 10.6 58 4.5 WNW 20 35 11 19 1015.4 - 0.0
19/02:00pm 18.9 15.3 11.7 63 4.0 NW 22 32 12 17 1015.2 - 0.0
19/01:30pm 19.5 16.7 11.4 59 4.5 NW 17 26 9 14 1015.6 - 0.0
19/01:00pm 18.2 15.4 11.5 65 3.7 NNW 17 22 9 12 1015.5 - 0.0
19/12:30pm 18.2 15.4 11.3 64 3.8 NNW 17 24 9 13 1015.8 - 0.0
19/12:00pm 18.5 15.8 10.4 59 4.4 WNW 15 28 8 15 1016.0 1016.1 0.0
19/11:30am 18.4 15.9 10.9 61 4.1 WNW 15 22 8 12 1016.5 - 0.0
19/11:00am 17.2 14.6 12.0 71 2.9 NNW 17 26 9 14 1016.7 - 0.0
19/10:30am 17.7 14.2 10.2 61 4.0 NW 19 32 10 17 1016.7 - 0.0
19/10:00am 16.4 14.4 11.4 72 2.7 NNW 13 20 7 11 1016.9 - 0.0
19/09:30am 15.5 13.8 11.2 75 2.3 NNW 11 20 6 11 1017.1 - 0.0
19/09:00am 14.7 13.5 10.3 75 2.3 NW 7 13 4 7 1017.2 1017.4 0.0
19/08:30am 14.0 12.9 10.0 77 2.1 NNE 6 9 3 5 1017.2 - 0.0
19/08:00am 12.6 11.3 9.9 83 1.4 SSE 7 9 4 5 1017.5 - 0.0
19/07:30am 10.7 9.7 8.7 87 1.0 E 4 7 2 4 1017.3 - 0.0
19/07:00am 9.1 8.1 7.2 88 0.9 N 2 6 1 3 1017.2 - 0.0
19/06:30am 8.7 8.0 7.0 89 0.8 CALM 0 0 0 0 1017.1 - 0.0
19/06:00am 9.8 7.7 6.8 81 1.4 SSE 7 9 4 5 1017.1 1017.2 0.0
19/05:30am 9.6 7.6 7.1 84 1.2 SSE 7 9 4 5 1017.3 - 0.0
19/05:00am 9.8 7.8 7.3 84 1.2 SSE 7 9 4 5 1017.7 - 0.0
19/04:30am 9.5 7.5 7.2 85 1.1 S 7 9 4 5 1018.3 - 0.0
19/04:00am 9.3 6.9 7.2 87 1.0 S 9 13 5 7 1018.7 - 0.0
19/03:30am 9.3 6.6 7.4 88 0.9 S 11 15 6 8 1018.7 - 0.0
19/03:00am 9.4 7.1 7.5 88 0.9 SSE 9 15 5 8 1019.1 1019.2 0.0
19/02:30am 8.7 5.6 7.4 91 0.6 SSE 13 15 7 8 1019.5 - 0.0
19/02:00am 8.5 5.8 7.2 91 0.6 SSE 11 15 6 8 1020.0 - 0.0
19/01:30am 8.9 6.2 7.4 90 0.7 SE 11 13 6 7 1020.5 - 0.0
19/01:00am 9.3 7.0 7.4 88 0.9 SSE 9 11 5 6 1020.9 - 0.0
19/12:30am 9.7 7.1 7.6 87 1.0 S 11 13 6 7 1021.0 - 0.0
19/12:00am 9.5 6.9 7.8 89 0.8 SE 11 15 6 8 1021.0 1021.2 0.0
 
Date/Time
EDT
Temp
°C
App
Temp
°C
Dew
Point
Rel
Hum
%
Delta-T
°C
Wind Press
QNH
hPa
Press
MSL
hPa
Rain
since 9 am
mm
Dir
 
Spd
km/h
Gust
km/h
Spd
kts
Gust
kts
18/11:30pm 10.1 7.9 8.0 87 1.0 SSE 9 13 5 7 1021.4 - 0.0
18/11:00pm 10.1 8.3 8.0 87 1.0 SSE 7 11 4 6 1021.7 - 0.0
18/10:30pm 10.1 8.1 8.5 90 0.8 SE 9 11 5 6 1021.8 - 0.0
18/10:00pm 10.6 8.2 8.8 89 0.9 SSE 11 13 6 7 1022.2 - 0.0

Other Formats:

Comma delimited format used in spreadsheet applications
http://www.bom.gov.au/fwo/IDT60801/IDT60801.94972.axf

JavaScript Object Notation format (JSON) in row-major order
http://www.bom.gov.au/fwo/IDT60801/IDT60801.94972.json